sensor_id;sensor_type;location;lat;lon;timestamp;P1;durP1;ratioP1;P2;durP2;ratioP2
9739;SDS011;4909;42.680;26.324;2023-09-19T00:00:25;71.77;;;68.17;;
9739;SDS011;4909;42.680;26.324;2023-09-19T00:02:54;68.60;;;65.23;;
9739;SDS011;4909;42.680;26.324;2023-09-19T00:05:22;68.87;;;65.07;;
9739;SDS011;4909;42.680;26.324;2023-09-19T00:07:52;66.70;;;63.37;;
9739;SDS011;4909;42.680;26.324;2023-09-19T00:10:20;71.60;;;67.90;;
9739;SDS011;4909;42.680;26.324;2023-09-19T00:12:49;65.93;;;62.67;;
9739;SDS011;4909;42.680;26.324;2023-09-19T00:15:17;66.93;;;63.63;;
9739;SDS011;4909;42.680;26.324;2023-09-19T00:17:45;61.73;;;58.67;;
9739;SDS011;4909;42.680;26.324;2023-09-19T00:20:14;66.83;;;63.73;;
9739;SDS011;4909;42.680;26.324;2023-09-19T00:22:42;60.60;;;57.73;;
9739;SDS011;4909;42.680;26.324;2023-09-19T00:25:09;55.07;;;52.73;;
9739;SDS011;4909;42.680;26.324;2023-09-19T00:27:37;54.03;;;51.50;;
9739;SDS011;4909;42.680;26.324;2023-09-19T00:30:07;54.40;;;51.83;;
9739;SDS011;4909;42.680;26.324;2023-09-19T00:32:39;57.50;;;54.57;;
9739;SDS011;4909;42.680;26.324;2023-09-19T00:35:07;56.53;;;53.83;;
9739;SDS011;4909;42.680;26.324;2023-09-19T00:37:37;55.50;;;52.80;;
9739;SDS011;4909;42.680;26.324;2023-09-19T00:40:06;54.30;;;51.60;;
9739;SDS011;4909;42.680;26.324;2023-09-19T00:42:37;54.20;;;51.60;;
9739;SDS011;4909;42.680;26.324;2023-09-19T00:45:05;58.07;;;54.97;;
9739;SDS011;4909;42.680;26.324;2023-09-19T00:47:34;57.00;;;54.20;;
9739;SDS011;4909;42.680;26.324;2023-09-19T00:50:02;59.03;;;56.33;;
9739;SDS011;4909;42.680;26.324;2023-09-19T00:52:32;57.90;;;54.97;;
9739;SDS011;4909;42.680;26.324;2023-09-19T00:55:03;58.57;;;55.70;;
9739;SDS011;4909;42.680;26.324;2023-09-19T00:57:31;56.37;;;53.73;;
9739;SDS011;4909;42.680;26.324;2023-09-19T00:59:59;58.63;;;55.90;;
9739;SDS011;4909;42.680;26.324;2023-09-19T01:02:30;62.83;;;59.80;;
9739;SDS011;4909;42.680;26.324;2023-09-19T01:04:57;58.67;;;55.90;;
9739;SDS011;4909;42.680;26.324;2023-09-19T01:07:25;53.47;;;50.97;;
9739;SDS011;4909;42.680;26.324;2023-09-19T01:09:52;54.87;;;52.37;;
9739;SDS011;4909;42.680;26.324;2023-09-19T01:12:24;56.33;;;53.43;;
9739;SDS011;4909;42.680;26.324;2023-09-19T01:15:01;57.80;;;54.97;;
9739;SDS011;4909;42.680;26.324;2023-09-19T01:17:34;60.23;;;57.23;;
9739;SDS011;4909;42.680;26.324;2023-09-19T01:23:01;58.40;;;55.30;;
9739;SDS011;4909;42.680;26.324;2023-09-19T01:25:50;59.40;;;56.50;;
9739;SDS011;4909;42.680;26.324;2023-09-19T01:31:28;60.00;;;57.37;;
9739;SDS011;4909;42.680;26.324;2023-09-19T01:33:59;60.77;;;57.87;;
9739;SDS011;4909;42.680;26.324;2023-09-19T01:36:29;64.03;;;61.07;;
9739;SDS011;4909;42.680;26.324;2023-09-19T01:39:00;63.33;;;59.93;;
9739;SDS011;4909;42.680;26.324;2023-09-19T01:41:38;64.57;;;61.37;;
9739;SDS011;4909;42.680;26.324;2023-09-19T01:44:16;59.13;;;56.33;;
9739;SDS011;4909;42.680;26.324;2023-09-19T01:46:49;65.17;;;62.03;;
9739;SDS011;4909;42.680;26.324;2023-09-19T01:49:18;62.03;;;59.03;;
9739;SDS011;4909;42.680;26.324;2023-09-19T01:51:56;58.33;;;55.43;;
9739;SDS011;4909;42.680;26.324;2023-09-19T01:54:31;63.83;;;60.73;;
9739;SDS011;4909;42.680;26.324;2023-09-19T01:57:04;60.53;;;57.57;;
9739;SDS011;4909;42.680;26.324;2023-09-19T01:59:37;60.83;;;58.33;;
9739;SDS011;4909;42.680;26.324;2023-09-19T02:02:13;63.20;;;59.97;;
9739;SDS011;4909;42.680;26.324;2023-09-19T02:04:41;58.33;;;55.67;;
9739;SDS011;4909;42.680;26.324;2023-09-19T02:07:08;57.97;;;55.10;;
9739;SDS011;4909;42.680;26.324;2023-09-19T02:09:35;61.60;;;58.47;;
9739;SDS011;4909;42.680;26.324;2023-09-19T02:12:04;66.93;;;63.67;;
9739;SDS011;4909;42.680;26.324;2023-09-19T02:14:32;61.80;;;59.03;;
9739;SDS011;4909;42.680;26.324;2023-09-19T02:16:59;66.30;;;63.40;;
9739;SDS011;4909;42.680;26.324;2023-09-19T02:19:27;66.17;;;62.93;;
9739;SDS011;4909;42.680;26.324;2023-09-19T02:21:55;59.87;;;57.07;;
9739;SDS011;4909;42.680;26.324;2023-09-19T02:24:21;62.03;;;59.23;;
9739;SDS011;4909;42.680;26.324;2023-09-19T02:26:52;64.23;;;61.30;;
9739;SDS011;4909;42.680;26.324;2023-09-19T02:29:19;69.40;;;66.07;;
9739;SDS011;4909;42.680;26.324;2023-09-19T02:31:47;67.30;;;64.23;;
9739;SDS011;4909;42.680;26.324;2023-09-19T02:34:14;68.37;;;65.27;;
9739;SDS011;4909;42.680;26.324;2023-09-19T02:36:43;74.17;;;70.57;;
9739;SDS011;4909;42.680;26.324;2023-09-19T02:39:11;71.83;;;68.60;;
9739;SDS011;4909;42.680;26.324;2023-09-19T02:41:38;73.83;;;70.23;;
9739;SDS011;4909;42.680;26.324;2023-09-19T02:44:06;77.07;;;73.17;;
9739;SDS011;4909;42.680;26.324;2023-09-19T02:46:33;77.77;;;73.97;;
9739;SDS011;4909;42.680;26.324;2023-09-19T02:49:01;78.53;;;74.50;;
9739;SDS011;4909;42.680;26.324;2023-09-19T02:51:30;74.57;;;70.93;;
9739;SDS011;4909;42.680;26.324;2023-09-19T02:53:58;76.20;;;72.47;;
9739;SDS011;4909;42.680;26.324;2023-09-19T02:56:25;72.73;;;69.17;;
9739;SDS011;4909;42.680;26.324;2023-09-19T02:58:52;74.33;;;70.80;;
9739;SDS011;4909;42.680;26.324;2023-09-19T03:01:20;80.60;;;76.90;;
9739;SDS011;4909;42.680;26.324;2023-09-19T03:03:47;76.83;;;73.00;;
9739;SDS011;4909;42.680;26.324;2023-09-19T03:06:15;83.80;;;79.70;;
9739;SDS011;4909;42.680;26.324;2023-09-19T03:08:45;82.83;;;78.50;;
9739;SDS011;4909;42.680;26.324;2023-09-19T03:11:15;74.70;;;71.07;;
9739;SDS011;4909;42.680;26.324;2023-09-19T03:13:50;81.13;;;77.03;;
9739;SDS011;4909;42.680;26.324;2023-09-19T03:16:17;81.70;;;77.80;;
9739;SDS011;4909;42.680;26.324;2023-09-19T03:18:47;86.23;;;81.97;;
9739;SDS011;4909;42.680;26.324;2023-09-19T03:21:14;75.63;;;72.10;;
9739;SDS011;4909;42.680;26.324;2023-09-19T03:23:42;81.73;;;77.83;;
9739;SDS011;4909;42.680;26.324;2023-09-19T03:26:10;83.23;;;78.40;;
9739;SDS011;4909;42.680;26.324;2023-09-19T03:28:41;82.83;;;78.90;;
9739;SDS011;4909;42.680;26.324;2023-09-19T03:31:08;80.57;;;76.33;;
9739;SDS011;4909;42.680;26.324;2023-09-19T03:33:36;78.30;;;74.40;;
9739;SDS011;4909;42.680;26.324;2023-09-19T03:36:03;75.47;;;71.60;;
9739;SDS011;4909;42.680;26.324;2023-09-19T03:38:31;82.07;;;78.10;;
9739;SDS011;4909;42.680;26.324;2023-09-19T03:40:59;81.93;;;78.03;;
9739;SDS011;4909;42.680;26.324;2023-09-19T03:43:26;90.70;;;86.33;;
9739;SDS011;4909;42.680;26.324;2023-09-19T03:45:55;80.83;;;77.03;;
9739;SDS011;4909;42.680;26.324;2023-09-19T03:48:21;89.33;;;85.23;;
9739;SDS011;4909;42.680;26.324;2023-09-19T03:50:48;94.90;;;90.20;;
9739;SDS011;4909;42.680;26.324;2023-09-19T03:53:16;87.43;;;83.33;;
9739;SDS011;4909;42.680;26.324;2023-09-19T03:55:44;89.83;;;85.57;;
9739;SDS011;4909;42.680;26.324;2023-09-19T03:58:11;88.83;;;84.43;;
9739;SDS011;4909;42.680;26.324;2023-09-19T04:00:38;83.97;;;79.97;;
9739;SDS011;4909;42.680;26.324;2023-09-19T04:03:06;80.43;;;76.53;;
9739;SDS011;4909;42.680;26.324;2023-09-19T04:05:35;77.90;;;74.27;;
9739;SDS011;4909;42.680;26.324;2023-09-19T04:08:02;71.17;;;67.57;;
9739;SDS011;4909;42.680;26.324;2023-09-19T04:10:30;70.93;;;67.63;;
9739;SDS011;4909;42.680;26.324;2023-09-19T04:12:57;68.70;;;65.40;;
9739;SDS011;4909;42.680;26.324;2023-09-19T04:15:23;66.40;;;63.23;;
9739;SDS011;4909;42.680;26.324;2023-09-19T04:17:50;64.00;;;60.70;;
9739;SDS011;4909;42.680;26.324;2023-09-19T04:20:19;63.90;;;60.73;;
9739;SDS011;4909;42.680;26.324;2023-09-19T04:22:48;63.43;;;60.03;;
9739;SDS011;4909;42.680;26.324;2023-09-19T04:25:14;60.73;;;57.63;;
9739;SDS011;4909;42.680;26.324;2023-09-19T04:27:42;59.43;;;56.43;;
9739;SDS011;4909;42.680;26.324;2023-09-19T04:30:10;53.77;;;50.90;;
9739;SDS011;4909;42.680;26.324;2023-09-19T04:32:38;54.23;;;51.37;;
9739;SDS011;4909;42.680;26.324;2023-09-19T04:35:06;57.70;;;54.70;;
9739;SDS011;4909;42.680;26.324;2023-09-19T04:37:37;58.20;;;55.17;;
9739;SDS011;4909;42.680;26.324;2023-09-19T04:40:07;62.17;;;58.43;;
9739;SDS011;4909;42.680;26.324;2023-09-19T04:42:38;52.50;;;50.00;;
9739;SDS011;4909;42.680;26.324;2023-09-19T04:45:07;57.60;;;54.23;;
9739;SDS011;4909;42.680;26.324;2023-09-19T04:47:35;59.73;;;55.60;;
9739;SDS011;4909;42.680;26.324;2023-09-19T04:50:04;58.30;;;55.03;;
9739;SDS011;4909;42.680;26.324;2023-09-19T04:52:39;60.73;;;56.90;;
9739;SDS011;4909;42.680;26.324;2023-09-19T04:55:09;53.23;;;50.60;;
9739;SDS011;4909;42.680;26.324;2023-09-19T04:57:42;48.37;;;45.63;;
9739;SDS011;4909;42.680;26.324;2023-09-19T05:00:11;52.47;;;49.80;;
9739;SDS011;4909;42.680;26.324;2023-09-19T05:02:40;52.10;;;49.47;;
9739;SDS011;4909;42.680;26.324;2023-09-19T05:05:07;57.40;;;54.17;;
9739;SDS011;4909;42.680;26.324;2023-09-19T05:07:35;55.10;;;52.03;;
9739;SDS011;4909;42.680;26.324;2023-09-19T05:10:04;58.00;;;54.80;;
9739;SDS011;4909;42.680;26.324;2023-09-19T05:12:32;59.93;;;56.73;;
9739;SDS011;4909;42.680;26.324;2023-09-19T05:15:00;70.60;;;66.73;;
9739;SDS011;4909;42.680;26.324;2023-09-19T05:17:28;56.30;;;53.33;;
9739;SDS011;4909;42.680;26.324;2023-09-19T05:19:56;57.50;;;54.60;;
9739;SDS011;4909;42.680;26.324;2023-09-19T05:22:23;61.63;;;58.23;;
9739;SDS011;4909;42.680;26.324;2023-09-19T05:24:50;65.83;;;60.80;;
9739;SDS011;4909;42.680;26.324;2023-09-19T05:27:19;63.20;;;59.70;;
9739;SDS011;4909;42.680;26.324;2023-09-19T05:29:47;70.43;;;66.53;;
9739;SDS011;4909;42.680;26.324;2023-09-19T05:32:14;66.07;;;62.87;;
9739;SDS011;4909;42.680;26.324;2023-09-19T05:34:41;67.17;;;63.97;;
9739;SDS011;4909;42.680;26.324;2023-09-19T05:37:08;75.03;;;71.00;;
9739;SDS011;4909;42.680;26.324;2023-09-19T05:39:34;83.67;;;79.27;;
9739;SDS011;4909;42.680;26.324;2023-09-19T05:42:02;86.93;;;82.50;;
9739;SDS011;4909;42.680;26.324;2023-09-19T05:44:31;89.83;;;85.30;;
9739;SDS011;4909;42.680;26.324;2023-09-19T05:46:58;90.23;;;85.57;;
9739;SDS011;4909;42.680;26.324;2023-09-19T05:49:25;92.07;;;87.57;;
9739;SDS011;4909;42.680;26.324;2023-09-19T05:51:52;90.93;;;86.70;;
9739;SDS011;4909;42.680;26.324;2023-09-19T05:54:21;96.17;;;91.53;;
9739;SDS011;4909;42.680;26.324;2023-09-19T05:56:48;98.77;;;94.00;;
9739;SDS011;4909;42.680;26.324;2023-09-19T05:59:18;101.63;;;96.60;;
9739;SDS011;4909;42.680;26.324;2023-09-19T06:01:46;107.97;;;102.80;;
9739;SDS011;4909;42.680;26.324;2023-09-19T06:04:13;111.77;;;106.33;;
9739;SDS011;4909;42.680;26.324;2023-09-19T06:06:40;115.27;;;109.47;;
9739;SDS011;4909;42.680;26.324;2023-09-19T06:09:07;113.93;;;108.50;;
9739;SDS011;4909;42.680;26.324;2023-09-19T06:11:34;124.17;;;117.80;;
9739;SDS011;4909;42.680;26.324;2023-09-19T06:14:01;129.83;;;123.03;;
9739;SDS011;4909;42.680;26.324;2023-09-19T06:16:28;126.20;;;119.87;;
9739;SDS011;4909;42.680;26.324;2023-09-19T06:18:56;138.77;;;131.67;;
9739;SDS011;4909;42.680;26.324;2023-09-19T06:21:23;136.43;;;129.63;;
9739;SDS011;4909;42.680;26.324;2023-09-19T06:24:11;144.03;;;136.43;;
9739;SDS011;4909;42.680;26.324;2023-09-19T06:26:38;148.37;;;141.03;;
9739;SDS011;4909;42.680;26.324;2023-09-19T06:29:05;168.40;;;159.27;;
9739;SDS011;4909;42.680;26.324;2023-09-19T06:31:32;170.50;;;161.93;;
9739;SDS011;4909;42.680;26.324;2023-09-19T06:34:01;172.73;;;163.87;;
9739;SDS011;4909;42.680;26.324;2023-09-19T06:36:28;181.27;;;171.77;;
9739;SDS011;4909;42.680;26.324;2023-09-19T06:38:55;193.80;;;184.10;;
9739;SDS011;4909;42.680;26.324;2023-09-19T06:41:22;198.73;;;188.77;;
9739;SDS011;4909;42.680;26.324;2023-09-19T06:43:50;205.03;;;194.60;;
9739;SDS011;4909;42.680;26.324;2023-09-19T06:46:18;213.17;;;202.73;;
9739;SDS011;4909;42.680;26.324;2023-09-19T06:48:45;176.17;;;167.67;;
9739;SDS011;4909;42.680;26.324;2023-09-19T06:51:14;217.73;;;206.47;;
9739;SDS011;4909;42.680;26.324;2023-09-19T06:53:41;251.00;;;238.00;;
9739;SDS011;4909;42.680;26.324;2023-09-19T06:56:08;249.60;;;236.47;;
9739;SDS011;4909;42.680;26.324;2023-09-19T06:58:35;255.87;;;242.93;;
9739;SDS011;4909;42.680;26.324;2023-09-19T07:01:02;266.97;;;253.10;;
9739;SDS011;4909;42.680;26.324;2023-09-19T07:03:29;275.57;;;261.57;;
9739;SDS011;4909;42.680;26.324;2023-09-19T07:05:58;281.40;;;267.33;;
9739;SDS011;4909;42.680;26.324;2023-09-19T07:08:26;292.53;;;277.93;;
9739;SDS011;4909;42.680;26.324;2023-09-19T07:10:53;297.27;;;282.13;;
9739;SDS011;4909;42.680;26.324;2023-09-19T07:13:22;306.20;;;290.90;;
9739;SDS011;4909;42.680;26.324;2023-09-19T07:15:50;319.00;;;303.17;;
9739;SDS011;4909;42.680;26.324;2023-09-19T07:18:17;316.57;;;300.10;;
9739;SDS011;4909;42.680;26.324;2023-09-19T07:20:45;320.17;;;304.67;;
9739;SDS011;4909;42.680;26.324;2023-09-19T07:23:14;325.87;;;309.70;;
9739;SDS011;4909;42.680;26.324;2023-09-19T07:25:45;317.87;;;302.07;;
9739;SDS011;4909;42.680;26.324;2023-09-19T07:28:12;339.03;;;322.43;;
9739;SDS011;4909;42.680;26.324;2023-09-19T07:30:39;341.33;;;324.47;;
9739;SDS011;4909;42.680;26.324;2023-09-19T07:33:06;332.63;;;315.63;;
9739;SDS011;4909;42.680;26.324;2023-09-19T07:35:36;338.17;;;321.13;;
9739;SDS011;4909;42.680;26.324;2023-09-19T07:38:04;335.10;;;317.97;;
9739;SDS011;4909;42.680;26.324;2023-09-19T07:40:31;354.03;;;336.47;;
9739;SDS011;4909;42.680;26.324;2023-09-19T07:43:00;366.70;;;348.33;;
9739;SDS011;4909;42.680;26.324;2023-09-19T07:45:29;396.67;;;375.70;;
9739;SDS011;4909;42.680;26.324;2023-09-19T07:47:56;429.83;;;406.60;;
9739;SDS011;4909;42.680;26.324;2023-09-19T07:50:25;462.13;;;436.23;;
9739;SDS011;4909;42.680;26.324;2023-09-19T07:52:52;504.67;;;476.47;;
9739;SDS011;4909;42.680;26.324;2023-09-19T07:55:19;534.43;;;503.67;;
9739;SDS011;4909;42.680;26.324;2023-09-19T07:57:49;579.07;;;545.37;;
9739;SDS011;4909;42.680;26.324;2023-09-19T08:00:17;596.33;;;561.40;;
9739;SDS011;4909;42.680;26.324;2023-09-19T08:02:44;616.97;;;580.93;;
9739;SDS011;4909;42.680;26.324;2023-09-19T08:05:12;645.37;;;607.83;;
9739;SDS011;4909;42.680;26.324;2023-09-19T08:07:42;660.97;;;622.63;;
9739;SDS011;4909;42.680;26.324;2023-09-19T08:10:10;673.53;;;634.93;;
9739;SDS011;4909;42.680;26.324;2023-09-19T08:12:39;675.43;;;636.53;;
9739;SDS011;4909;42.680;26.324;2023-09-19T08:15:11;687.30;;;648.57;;
9739;SDS011;4909;42.680;26.324;2023-09-19T08:17:40;669.50;;;633.17;;
9739;SDS011;4909;42.680;26.324;2023-09-19T08:20:07;656.37;;;620.47;;
9739;SDS011;4909;42.680;26.324;2023-09-19T08:22:41;646.47;;;611.77;;
9739;SDS011;4909;42.680;26.324;2023-09-19T08:25:11;646.70;;;611.57;;
9739;SDS011;4909;42.680;26.324;2023-09-19T08:27:38;609.80;;;577.97;;
9739;SDS011;4909;42.680;26.324;2023-09-19T08:30:06;604.13;;;573.00;;
9739;SDS011;4909;42.680;26.324;2023-09-19T08:32:33;574.53;;;545.63;;
9739;SDS011;4909;42.680;26.324;2023-09-19T08:35:02;566.53;;;537.50;;
9739;SDS011;4909;42.680;26.324;2023-09-19T08:37:29;555.10;;;526.80;;
9739;SDS011;4909;42.680;26.324;2023-09-19T08:39:56;534.90;;;506.63;;
9739;SDS011;4909;42.680;26.324;2023-09-19T08:42:23;528.73;;;501.13;;
9739;SDS011;4909;42.680;26.324;2023-09-19T08:44:50;512.27;;;485.10;;
9739;SDS011;4909;42.680;26.324;2023-09-19T08:47:22;510.63;;;484.50;;
9739;SDS011;4909;42.680;26.324;2023-09-19T08:50:03;498.37;;;471.90;;
9739;SDS011;4909;42.680;26.324;2023-09-19T08:52:41;510.93;;;483.13;;
9739;SDS011;4909;42.680;26.324;2023-09-19T08:55:10;516.60;;;488.50;;
9739;SDS011;4909;42.680;26.324;2023-09-19T08:57:45;531.10;;;502.60;;
9739;SDS011;4909;42.680;26.324;2023-09-19T09:00:14;504.93;;;476.73;;
9739;SDS011;4909;42.680;26.324;2023-09-19T09:02:43;514.50;;;485.80;;
9739;SDS011;4909;42.680;26.324;2023-09-19T09:05:11;501.00;;;473.33;;
9739;SDS011;4909;42.680;26.324;2023-09-19T09:07:39;510.63;;;482.00;;
9739;SDS011;4909;42.680;26.324;2023-09-19T09:10:07;513.20;;;483.63;;
9739;SDS011;4909;42.680;26.324;2023-09-19T09:12:35;512.13;;;483.57;;
9739;SDS011;4909;42.680;26.324;2023-09-19T09:15:05;504.00;;;475.83;;
9739;SDS011;4909;42.680;26.324;2023-09-19T09:17:34;524.03;;;494.47;;
9739;SDS011;4909;42.680;26.324;2023-09-19T09:20:01;515.63;;;487.23;;
9739;SDS011;4909;42.680;26.324;2023-09-19T09:22:31;506.63;;;478.73;;
9739;SDS011;4909;42.680;26.324;2023-09-19T09:24:58;506.00;;;477.87;;
9739;SDS011;4909;42.680;26.324;2023-09-19T09:27:28;500.43;;;472.83;;
9739;SDS011;4909;42.680;26.324;2023-09-19T09:29:56;490.87;;;464.10;;
9739;SDS011;4909;42.680;26.324;2023-09-19T09:32:24;484.07;;;456.97;;
9739;SDS011;4909;42.680;26.324;2023-09-19T09:34:54;472.53;;;446.23;;
9739;SDS011;4909;42.680;26.324;2023-09-19T09:37:22;478.30;;;451.97;;
9739;SDS011;4909;42.680;26.324;2023-09-19T09:39:54;477.60;;;450.33;;
9739;SDS011;4909;42.680;26.324;2023-09-19T09:42:30;472.47;;;445.83;;
9739;SDS011;4909;42.680;26.324;2023-09-19T09:45:12;456.83;;;430.43;;
9739;SDS011;4909;42.680;26.324;2023-09-19T09:47:43;466.77;;;439.97;;
9739;SDS011;4909;42.680;26.324;2023-09-19T09:50:24;464.93;;;438.20;;
9739;SDS011;4909;42.680;26.324;2023-09-19T09:52:54;480.17;;;452.80;;
9739;SDS011;4909;42.680;26.324;2023-09-19T09:55:56;447.23;;;420.70;;
9739;SDS011;4909;42.680;26.324;2023-09-19T09:58:24;480.80;;;453.67;;
9739;SDS011;4909;42.680;26.324;2023-09-19T10:00:54;468.67;;;441.73;;
9739;SDS011;4909;42.680;26.324;2023-09-19T10:03:30;459.20;;;432.70;;
9739;SDS011;4909;42.680;26.324;2023-09-19T10:05:59;473.00;;;445.60;;
9739;SDS011;4909;42.680;26.324;2023-09-19T10:08:34;476.60;;;448.63;;
9739;SDS011;4909;42.680;26.324;2023-09-19T10:11:14;492.70;;;464.97;;
9739;SDS011;4909;42.680;26.324;2023-09-19T10:13:42;471.27;;;443.27;;
9739;SDS011;4909;42.680;26.324;2023-09-19T10:16:12;464.70;;;437.27;;
9739;SDS011;4909;42.680;26.324;2023-09-19T10:18:44;466.20;;;438.87;;
9739;SDS011;4909;42.680;26.324;2023-09-19T10:21:15;452.57;;;425.17;;
9739;SDS011;4909;42.680;26.324;2023-09-19T10:23:47;478.00;;;449.67;;
9739;SDS011;4909;42.680;26.324;2023-09-19T10:26:18;471.30;;;442.70;;
9739;SDS011;4909;42.680;26.324;2023-09-19T10:28:49;483.10;;;454.67;;
9739;SDS011;4909;42.680;26.324;2023-09-19T10:31:19;464.47;;;436.47;;
9739;SDS011;4909;42.680;26.324;2023-09-19T10:33:49;467.30;;;438.60;;
9739;SDS011;4909;42.680;26.324;2023-09-19T10:36:17;489.27;;;459.43;;
9739;SDS011;4909;42.680;26.324;2023-09-19T10:38:45;459.50;;;430.70;;
9739;SDS011;4909;42.680;26.324;2023-09-19T10:41:14;487.93;;;458.20;;
9739;SDS011;4909;42.680;26.324;2023-09-19T10:43:44;472.80;;;443.27;;
9739;SDS011;4909;42.680;26.324;2023-09-19T10:46:14;488.63;;;458.13;;
9739;SDS011;4909;42.680;26.324;2023-09-19T10:48:41;482.97;;;453.10;;
9739;SDS011;4909;42.680;26.324;2023-09-19T10:51:15;474.17;;;445.53;;
9739;SDS011;4909;42.680;26.324;2023-09-19T10:53:49;469.57;;;440.63;;
9739;SDS011;4909;42.680;26.324;2023-09-19T10:56:21;470.30;;;441.40;;
9739;SDS011;4909;42.680;26.324;2023-09-19T10:59:05;464.73;;;436.30;;
9739;SDS011;4909;42.680;26.324;2023-09-19T11:01:44;461.17;;;433.80;;
9739;SDS011;4909;42.680;26.324;2023-09-19T11:04:26;460.43;;;432.57;;
9739;SDS011;4909;42.680;26.324;2023-09-19T11:07:01;454.60;;;427.70;;
9739;SDS011;4909;42.680;26.324;2023-09-19T11:09:48;467.23;;;438.90;;
9739;SDS011;4909;42.680;26.324;2023-09-19T11:24:28;450.43;;;423.37;;
9739;SDS011;4909;42.680;26.324;2023-09-19T11:27:14;458.83;;;431.87;;
9739;SDS011;4909;42.680;26.324;2023-09-19T11:29:43;463.70;;;436.47;;
9739;SDS011;4909;42.680;26.324;2023-09-19T11:32:10;465.70;;;438.07;;
9739;SDS011;4909;42.680;26.324;2023-09-19T11:34:42;454.07;;;426.90;;
9739;SDS011;4909;42.680;26.324;2023-09-19T11:40:44;424.07;;;398.80;;
9739;SDS011;4909;42.680;26.324;2023-09-19T11:43:29;446.83;;;420.27;;
9739;SDS011;4909;42.680;26.324;2023-09-19T11:46:05;444.47;;;418.37;;
9739;SDS011;4909;42.680;26.324;2023-09-19T11:48:37;427.60;;;401.67;;
9739;SDS011;4909;42.680;26.324;2023-09-19T11:51:20;451.07;;;424.30;;
9739;SDS011;4909;42.680;26.324;2023-09-19T11:53:53;451.87;;;425.33;;
9739;SDS011;4909;42.680;26.324;2023-09-19T11:56:21;437.40;;;411.53;;
9739;SDS011;4909;42.680;26.324;2023-09-19T11:58:51;450.10;;;423.53;;
9739;SDS011;4909;42.680;26.324;2023-09-19T12:01:23;433.27;;;407.07;;
9739;SDS011;4909;42.680;26.324;2023-09-19T12:03:54;443.53;;;417.40;;
9739;SDS011;4909;42.680;26.324;2023-09-19T12:06:27;451.40;;;425.00;;
9739;SDS011;4909;42.680;26.324;2023-09-19T12:08:57;441.93;;;414.87;;
9739;SDS011;4909;42.680;26.324;2023-09-19T12:11:27;455.53;;;428.83;;
9739;SDS011;4909;42.680;26.324;2023-09-19T12:13:55;466.27;;;438.93;;
9739;SDS011;4909;42.680;26.324;2023-09-19T12:16:25;439.87;;;412.80;;
9739;SDS011;4909;42.680;26.324;2023-09-19T12:18:55;465.03;;;437.43;;
9739;SDS011;4909;42.680;26.324;2023-09-19T12:21:23;459.10;;;432.03;;
9739;SDS011;4909;42.680;26.324;2023-09-19T12:23:57;466.83;;;439.87;;
9739;SDS011;4909;42.680;26.324;2023-09-19T12:26:26;461.10;;;433.23;;
9739;SDS011;4909;42.680;26.324;2023-09-19T12:28:54;454.93;;;427.50;;
9739;SDS011;4909;42.680;26.324;2023-09-19T12:31:22;444.13;;;417.60;;
9739;SDS011;4909;42.680;26.324;2023-09-19T12:33:55;443.67;;;417.20;;
9739;SDS011;4909;42.680;26.324;2023-09-19T12:36:22;443.03;;;416.97;;
9739;SDS011;4909;42.680;26.324;2023-09-19T12:38:56;438.23;;;412.23;;
9739;SDS011;4909;42.680;26.324;2023-09-19T12:41:24;445.67;;;418.93;;
9739;SDS011;4909;42.680;26.324;2023-09-19T12:43:51;450.20;;;423.30;;
9739;SDS011;4909;42.680;26.324;2023-09-19T12:46:19;460.60;;;433.43;;
9739;SDS011;4909;42.680;26.324;2023-09-19T12:48:51;449.73;;;422.67;;
9739;SDS011;4909;42.680;26.324;2023-09-19T12:51:42;434.47;;;408.20;;
9739;SDS011;4909;42.680;26.324;2023-09-19T12:54:10;450.37;;;423.70;;
9739;SDS011;4909;42.680;26.324;2023-09-19T12:56:40;444.03;;;417.70;;
9739;SDS011;4909;42.680;26.324;2023-09-19T12:59:09;454.87;;;428.03;;
9739;SDS011;4909;42.680;26.324;2023-09-19T13:01:38;453.47;;;426.53;;
9739;SDS011;4909;42.680;26.324;2023-09-19T13:04:10;449.13;;;421.90;;
9739;SDS011;4909;42.680;26.324;2023-09-19T13:06:43;446.77;;;419.63;;
9739;SDS011;4909;42.680;26.324;2023-09-19T13:09:12;450.10;;;423.33;;
9739;SDS011;4909;42.680;26.324;2023-09-19T13:11:40;445.17;;;418.30;;
9739;SDS011;4909;42.680;26.324;2023-09-19T13:14:16;461.63;;;433.93;;
9739;SDS011;4909;42.680;26.324;2023-09-19T13:16:57;449.77;;;422.30;;
9739;SDS011;4909;42.680;26.324;2023-09-19T13:19:36;433.97;;;407.37;;
9739;SDS011;4909;42.680;26.324;2023-09-19T13:25:09;441.60;;;414.87;;
9739;SDS011;4909;42.680;26.324;2023-09-19T13:27:43;449.10;;;421.80;;
9739;SDS011;4909;42.680;26.324;2023-09-19T13:30:11;460.20;;;432.53;;
9739;SDS011;4909;42.680;26.324;2023-09-19T13:32:38;438.40;;;411.07;;
9739;SDS011;4909;42.680;26.324;2023-09-19T13:35:06;441.60;;;414.67;;
9739;SDS011;4909;42.680;26.324;2023-09-19T13:37:34;463.27;;;435.60;;
9739;SDS011;4909;42.680;26.324;2023-09-19T13:40:03;455.73;;;428.00;;
9739;SDS011;4909;42.680;26.324;2023-09-19T13:42:32;450.03;;;422.27;;
9739;SDS011;4909;42.680;26.324;2023-09-19T13:45:01;450.80;;;422.77;;
9739;SDS011;4909;42.680;26.324;2023-09-19T13:47:29;460.43;;;432.23;;
9739;SDS011;4909;42.680;26.324;2023-09-19T13:49:57;444.67;;;416.53;;
9739;SDS011;4909;42.680;26.324;2023-09-19T13:52:25;443.10;;;415.20;;
9739;SDS011;4909;42.680;26.324;2023-09-19T13:54:54;451.80;;;423.20;;
9739;SDS011;4909;42.680;26.324;2023-09-19T13:57:21;479.73;;;450.90;;
9739;SDS011;4909;42.680;26.324;2023-09-19T13:59:50;450.77;;;423.00;;
9739;SDS011;4909;42.680;26.324;2023-09-19T14:02:19;464.33;;;436.10;;
9739;SDS011;4909;42.680;26.324;2023-09-19T14:04:47;446.23;;;418.93;;
9739;SDS011;4909;42.680;26.324;2023-09-19T14:07:14;470.67;;;441.93;;
9739;SDS011;4909;42.680;26.324;2023-09-19T14:09:43;452.63;;;424.70;;
9739;SDS011;4909;42.680;26.324;2023-09-19T14:12:10;450.17;;;422.73;;
9739;SDS011;4909;42.680;26.324;2023-09-19T14:14:38;449.03;;;421.13;;
9739;SDS011;4909;42.680;26.324;2023-09-19T14:17:06;464.70;;;436.67;;
9739;SDS011;4909;42.680;26.324;2023-09-19T14:19:34;453.67;;;425.20;;
9739;SDS011;4909;42.680;26.324;2023-09-19T14:22:02;453.70;;;425.37;;
9739;SDS011;4909;42.680;26.324;2023-09-19T14:24:32;457.20;;;429.20;;
9739;SDS011;4909;42.680;26.324;2023-09-19T14:27:00;464.37;;;436.13;;
9739;SDS011;4909;42.680;26.324;2023-09-19T14:29:29;455.93;;;427.87;;
9739;SDS011;4909;42.680;26.324;2023-09-19T14:31:56;466.30;;;437.97;;
9739;SDS011;4909;42.680;26.324;2023-09-19T14:34:25;453.37;;;425.00;;
9739;SDS011;4909;42.680;26.324;2023-09-19T14:36:51;465.27;;;437.07;;
9739;SDS011;4909;42.680;26.324;2023-09-19T14:39:19;480.93;;;452.10;;
9739;SDS011;4909;42.680;26.324;2023-09-19T14:41:46;465.87;;;437.30;;
9739;SDS011;4909;42.680;26.324;2023-09-19T14:44:13;484.67;;;455.90;;
9739;SDS011;4909;42.680;26.324;2023-09-19T14:46:41;477.40;;;448.13;;
9739;SDS011;4909;42.680;26.324;2023-09-19T14:49:08;470.93;;;442.33;;
9739;SDS011;4909;42.680;26.324;2023-09-19T14:51:37;470.17;;;441.07;;
9739;SDS011;4909;42.680;26.324;2023-09-19T14:54:05;459.30;;;431.40;;
9739;SDS011;4909;42.680;26.324;2023-09-19T14:56:33;443.90;;;416.57;;